Time;durP1;ratioP1;P1;durP2;ratioP2;P2;SDS_P1;SDS_P2;PMS_P1;PMS_P2;Temp;Humidity;BMP_temperature;BMP_pressure;BME280_temperature;BME280_humidity;BME280_pressure;Samples;Min_cycle;Max_cycle;Signal;HPM_P1;HPM_P2
2021/01/29 00:01:33;;;;;;;10.48;6.93;;;;;;;2.34;77.63;96397.13;9991887;29;20069;-78
2021/01/29 00:06:53;;;;;;;8.52;6.53;;;;;;;2.32;77.65;96386.69;9977560;29;20537;-77
2021/01/29 00:12:13;;;;;;;9.02;6.43;;;;;;;2.36;77.45;96398.00;9978059;29;20066;-78
2021/01/29 00:17:33;;;;;;;7.78;6.32;;;;;;;2.38;77.35;96392.63;9966093;29;20062;-78
2021/01/29 00:22:53;;;;;;;8.38;6.45;;;;;;;2.39;77.11;96393.34;9977563;29;20070;-78
2021/01/29 00:28:13;;;;;;;9.43;6.60;;;;;;;2.40;77.65;96394.81;9978028;29;20067;-78
2021/01/29 00:33:33;;;;;;;9.43;6.53;;;;;;;2.41;77.16;96388.72;9978259;29;20145;-78
2021/01/29 00:38:53;;;;;;;9.15;6.43;;;;;;;2.41;77.38;96388.72;9978103;29;20414;-78
2021/01/29 00:44:13;;;;;;;8.63;6.63;;;;;;;2.42;77.71;96387.44;9965014;29;20090;-78
2021/01/29 00:49:33;;;;;;;7.90;6.35;;;;;;;2.36;77.41;96395.25;9978644;29;20122;-78
2021/01/29 00:54:53;;;;;;;8.88;6.40;;;;;;;2.32;77.71;96389.44;9965518;29;20058;-79
2021/01/29 01:00:15;;;;;;;10.88;7.40;;;;;;;2.26;77.43;96391.72;9981033;29;20066;-78
2021/01/29 01:05:42;;;;;;;10.65;6.78;;;;;;;2.22;77.07;96396.88;9971644;29;20062;-78
2021/01/29 01:11:05;;;;;;;8.93;6.25;;;;;;;2.18;77.61;96380.06;9984147;29;20111;-78
2021/01/29 01:16:43;;;;;;;8.40;6.00;;;;;;;2.13;77.80;96390.06;9967309;29;20062;-78
2021/01/29 01:22:29;;;;;;;7.95;6.15;;;;;;;2.10;77.31;96402.19;9974119;29;20488;-78
2021/01/29 01:28:09;;;;;;;8.70;6.03;;;;;;;2.06;77.37;96401.88;9983650;29;20153;-78
2021/01/29 01:33:37;;;;;;;8.32;6.15;;;;;;;2.02;77.31;96385.03;9983389;29;20070;-77
2021/01/29 01:39:11;;;;;;;9.20;6.07;;;;;;;2.03;77.33;96391.25;9973944;29;20494;-78
2021/01/29 01:44:43;;;;;;;7.20;5.53;;;;;;;2.06;77.42;96373.63;9997200;29;20064;-78
2021/01/29 01:50:35;;;;;;;9.93;6.00;;;;;;;2.05;77.23;96366.66;9984285;29;20097;-78
2021/01/29 01:56:25;;;;;;;7.38;5.57;;;;;;;2.01;77.12;96370.53;9958381;29;20149;-78
2021/01/29 02:02:15;;;;;;;6.63;5.25;;;;;;;2.03;76.92;96378.25;9986147;29;20099;-78
2021/01/29 02:08:14;;;;;;;7.85;5.03;;;;;;;2.06;77.21;96362.63;9915285;29;20062;-78
2021/01/29 02:13:52;;;;;;;8.45;5.35;;;;;;;2.09;77.40;96375.22;9914372;30;20489;-78
2021/01/29 02:20:39;;;;;;;7.88;5.45;;;;;;;2.15;77.99;96367.44;9920989;30;20540;-78
2021/01/29 02:26:37;;;;;;;6.45;4.75;;;;;;;2.17;77.40;96354.56;9920893;30;20063;-78
2021/01/29 02:32:40;;;;;;;5.90;4.63;;;;;;;2.16;77.34;96352.38;9910769;30;20469;-78
2021/01/29 02:38:42;;;;;;;6.22;4.70;;;;;;;2.14;77.65;96358.47;9898255;30;20499;-78
2021/01/29 02:44:27;;;;;;;6.80;4.43;;;;;;;2.18;77.27;96360.78;9919100;30;20097;-78
2021/01/29 02:50:38;;;;;;;5.82;4.35;;;;;;;2.22;77.60;96353.59;9918602;30;20067;-78
2021/01/29 02:56:16;;;;;;;6.28;4.75;;;;;;;2.27;77.10;96327.81;9910078;30;20107;-78
2021/01/29 03:02:02;;;;;;;7.53;5.60;;;;;;;2.29;77.67;96319.69;9912743;30;20134;-78
2021/01/29 03:08:10;;;;;;;8.03;5.50;;;;;;;2.30;76.81;96317.66;9897836;30;20066;-78
2021/01/29 03:14:32;;;;;;;7.88;5.65;;;;;;;2.32;77.76;96312.31;9910769;30;20067;-78
2021/01/29 03:20:28;;;;;;;7.40;5.32;;;;;;;2.25;77.36;96294.63;9916803;29;20063;-77
2021/01/29 03:26:12;;;;;;;6.30;4.78;;;;;;;2.22;77.24;96297.78;9907699;30;20070;-78
2021/01/29 03:31:52;;;;;;;7.00;5.40;;;;;;;2.20;77.54;96284.56;9906490;30;20070;-78
2021/01/29 03:37:54;;;;;;;8.38;5.45;;;;;;;2.15;76.88;96271.09;9916013;30;20070;-78
2021/01/29 03:44:19;;;;;;;7.28;5.60;;;;;;;2.17;77.82;96280.22;9916099;30;20065;-78
2021/01/29 03:50:11;;;;;;;8.52;5.63;;;;;;;2.18;77.41;96264.44;9917142;30;20067;-78
2021/01/29 03:56:17;;;;;;;7.32;5.50;;;;;;;2.18;77.21;96259.66;9914594;30;20146;-77
2021/01/29 04:02:34;;;;;;;6.55;5.30;;;;;;;2.18;77.21;96245.16;9906877;30;20090;-80
2021/01/29 04:08:24;;;;;;;7.25;5.35;;;;;;;2.20;76.93;96239.81;9907657;30;20531;-80
2021/01/29 04:14:08;;;;;;;6.50;5.20;;;;;;;2.20;76.83;96242.56;9920314;29;20070;-78
2021/01/29 04:19:32;;;;;;;8.38;5.75;;;;;;;2.23;76.96;96244.19;9927881;29;20090;-80
2021/01/29 04:25:00;;;;;;;8.35;5.78;;;;;;;2.28;77.29;96237.66;9938741;29;20574;-80
2021/01/29 04:30:27;;;;;;;7.13;5.32;;;;;;;2.29;77.62;96237.09;9950840;29;20463;-80
2021/01/29 04:35:47;;;;;;;7.47;5.57;;;;;;;2.34;77.31;96237.41;9933215;29;20069;-80
2021/01/29 04:41:32;;;;;;;7.47;6.03;;;;;;;2.36;77.53;96224.50;9945827;29;20509;-79
2021/01/29 04:47:24;;;;;;;7.87;6.03;;;;;;;2.31;76.70;96228.25;9958507;29;20069;-80
2021/01/29 04:53:15;;;;;;;8.73;6.28;;;;;;;2.22;76.98;96201.41;9946223;29;20299;-79
2021/01/29 04:59:16;;;;;;;8.73;6.35;;;;;;;2.17;77.37;96208.66;9960987;29;20412;-80
2021/01/29 05:05:54;;;;;;;10.10;6.57;;;;;;;2.15;77.64;96172.00;9951318;29;20426;-80
2021/01/29 05:11:50;;;;;;;8.32;6.63;;;;;;;2.14;77.22;96170.53;9965427;29;20089;-80
2021/01/29 05:17:51;;;;;;;9.05;6.60;;;;;;;1.99;77.65;96149.50;9986184;29;20066;-80
2021/01/29 05:23:40;;;;;;;11.25;8.15;;;;;;;1.98;77.68;96146.00;9986669;29;20062;-80
2021/01/29 05:29:02;;;;;;;10.93;7.38;;;;;;;2.02;77.97;96148.34;9972307;29;20121;-80
2021/01/29 05:34:48;;;;;;;11.25;8.30;;;;;;;2.05;78.42;96146.47;9983081;29;20085;-79
2021/01/29 05:40:39;;;;;;;10.15;8.02;;;;;;;2.09;77.76;96135.75;9984381;29;20074;-80
2021/01/29 05:46:37;;;;;;;11.00;8.52;;;;;;;2.05;77.48;96129.97;9982476;29;20062;-80
2021/01/29 05:52:22;;;;;;;9.18;7.18;;;;;;;2.01;78.31;96109.06;9987176;29;20066;-80
2021/01/29 05:58:45;;;;;;;9.55;7.90;;;;;;;1.97;77.96;96108.06;9989854;29;20067;-80
2021/01/29 06:04:17;;;;;;;11.07;8.48;;;;;;;1.90;78.27;96111.66;9985334;29;20122;-80
2021/01/29 06:10:33;;;;;;;10.82;7.75;;;;;;;1.96;78.31;96101.84;9981252;29;20069;-80
2021/01/29 06:16:11;;;;;;;11.52;8.70;;;;;;;1.92;77.91;96104.28;9995692;29;20419;-78
2021/01/29 06:22:17;;;;;;;12.77;8.80;;;;;;;1.85;78.10;96096.91;9995316;29;20096;-78
2021/01/29 06:28:14;;;;;;;12.32;9.57;;;;;;;1.83;78.67;96088.47;9985873;29;20063;-79
2021/01/29 06:34:16;;;;;;;13.07;9.98;;;;;;;1.81;78.56;96071.09;9999199;29;20081;-78
2021/01/29 06:40:11;;;;;;;14.15;10.68;;;;;;;1.76;78.70;96072.13;9986216;29;20096;-79
2021/01/29 06:45:53;;;;;;;;;;;;;;;1.80;78.73;96070.38;9973902;29;20066;-78
2021/01/29 06:52:06;;;;;;;14.05;10.68;;;;;;;1.75;78.83;96048.66;9981736;29;20052;-78
2021/01/29 06:57:29;;;;;;;12.93;10.17;;;;;;;1.67;78.67;96032.28;9994035;29;20069;-78
2021/01/29 07:03:28;;;;;;;13.82;10.43;;;;;;;1.51;80.13;96025.56;9995988;29;20069;-78
2021/01/29 07:09:07;;;;;;;16.38;12.07;;;;;;;1.39;81.49;96019.91;9981397;29;20068;-78
2021/01/29 07:14:55;;;;;;;16.85;11.88;;;;;;;1.28;81.14;96010.19;9918845;29;20107;-79
2021/01/29 07:20:39;;;;;;;17.10;12.95;;;;;;;1.25;80.54;96005.09;9898026;30;20063;-79
2021/01/29 07:26:14;;;;;;;18.17;13.17;;;;;;;1.10;81.12;95995.06;9918237;30;20086;-80
2021/01/29 07:32:18;;;;;;;18.45;11.80;;;;;;;0.98;82.40;95983.91;9922444;30;20123;-80
2021/01/29 07:38:18;;;;;;;17.63;12.32;;;;;;;0.96;81.96;95972.00;9923556;30;20074;-80
2021/01/29 07:43:50;;;;;;;16.75;12.23;;;;;;;0.98;81.90;95963.94;9925312;30;20063;-80
2021/01/29 07:49:32;;;;;;;17.42;11.98;;;;;;;1.08;81.60;95964.69;9907680;30;20067;-80
2021/01/29 07:55:22;;;;;;;18.50;12.68;;;;;;;1.03;81.12;95947.16;9922218;30;20074;-80
2021/01/29 08:01:36;;;;;;;16.58;11.32;;;;;;;1.03;81.90;95954.69;9912626;30;20066;-77
2021/01/29 08:07:20;;;;;;;16.35;11.90;;;;;;;1.15;82.21;95923.31;9909718;30;20067;-77
2021/01/29 08:12:47;;;;;;;17.15;11.50;;;;;;;1.21;82.23;95920.31;9944310;29;20067;-77
2021/01/29 08:18:33;;;;;;;15.23;11.27;;;;;;;1.20;81.27;95907.16;9946192;29;20062;-78
2021/01/29 08:24:23;;;;;;;15.27;10.90;;;;;;;1.17;81.68;95900.06;9958613;29;20066;-77
2021/01/29 08:29:57;;;;;;;15.15;10.68;;;;;;;1.25;82.03;95895.84;9960847;29;20538;-77
2021/01/29 08:35:59;;;;;;;15.93;12.05;;;;;;;1.37;81.77;95871.31;9961824;29;20406;-77
2021/01/29 08:41:49;;;;;;;17.88;11.77;;;;;;;1.43;82.01;95869.69;9984411;29;20058;-77
2021/01/29 08:48:02;;;;;;;17.85;12.85;;;;;;;1.45;81.29;95863.63;9970318;29;20062;-77
2021/01/29 08:53:34;;;;;;;16.65;12.68;;;;;;;1.46;81.53;95858.84;9983707;29;20062;-77
2021/01/29 08:59:08;;;;;;;18.52;12.50;;;;;;;1.42;81.23;95843.50;9984195;29;20058;-77
2021/01/29 09:05:01;;;;;;;39.77;19.17;;;;;;;1.41;81.74;95847.56;9957650;29;20066;-77
2021/01/29 09:10:22;;;;;;;15.05;11.23;;;;;;;1.53;81.53;95839.44;9970584;29;20875;-77
2021/01/29 09:16:07;;;;;;;14.20;10.60;;;;;;;1.65;81.56;95836.84;9983838;29;20433;-77
2021/01/29 09:21:51;;;;;;;16.90;10.95;;;;;;;1.78;81.10;95836.38;9968079;29;20057;-77
2021/01/29 09:27:41;;;;;;;16.13;10.43;;;;;;;1.75;81.24;95815.56;10028207;29;20148;-75
2021/01/29 09:33:28;;;;;;;17.52;11.88;;;;;;;1.97;81.25;95799.84;10003873;29;20085;-75
2021/01/29 09:39:12;;;;;;;16.33;11.77;;;;;;;1.86;81.00;95781.94;10026900;29;20486;-75
2021/01/29 09:44:58;;;;;;;15.27;11.63;;;;;;;1.81;81.26;95771.94;10002850;29;20062;-75
2021/01/29 09:50:22;;;;;;;17.23;11.80;;;;;;;1.81;81.40;95766.44;10013017;29;20058;-75
2021/01/29 09:55:56;;;;;;;15.88;11.10;;;;;;;1.91;80.85;95763.66;10000813;29;20517;-75
2021/01/29 10:01:17;;;;;;;16.77;11.52;;;;;;;1.83;81.03;95752.81;10026023;29;20141;-75
2021/01/29 10:07:02;;;;;;;14.90;10.52;;;;;;;1.68;80.85;95739.41;10000418;29;20062;-75
2021/01/29 10:12:24;;;;;;;14.68;10.93;;;;;;;1.72;81.91;95731.44;10001700;29;20406;-77
2021/01/29 10:17:57;;;;;;;12.82;10.32;;;;;;;1.84;81.34;95724.03;9999609;29;20132;-77
2021/01/29 10:23:45;;;;;;;15.32;11.85;;;;;;;2.00;81.00;95705.84;9999236;29;20058;-77
2021/01/29 10:29:22;;;;;;;14.38;11.02;;;;;;;1.98;81.49;95697.44;9988410;29;20065;-77
2021/01/29 10:34:48;;;;;;;17.20;13.35;;;;;;;2.05;80.73;95686.84;10002941;29;20098;-77
2021/01/29 10:40:23;;;;;;;20.00;14.07;;;;;;;2.10;81.11;95661.75;10028334;29;20061;-79
2021/01/29 10:46:18;;;;;;;19.70;14.27;;;;;;;2.30;80.95;95662.34;9999077;29;20130;-76
2021/01/29 10:51:53;;;;;;;;;;;;;;;2.34;80.68;95648.88;10010184;29;20069;-76
2021/01/29 10:57:32;;;;;;;20.73;14.57;;;;;;;2.38;80.52;95631.88;10023421;29;19962;-74
2021/01/29 11:03:09;;;;;;;19.08;14.50;;;;;;;2.21;80.07;95622.56;10010318;29;20054;-77
2021/01/29 11:08:30;;;;;;;23.43;13.83;;;;;;;2.09;80.13;95610.06;10001133;29;20078;-76
2021/01/29 11:14:25;;;;;;;17.83;12.65;;;;;;;2.11;80.97;95596.41;9985480;29;20092;-76
2021/01/29 11:19:47;;;;;;;16.52;13.18;;;;;;;1.99;81.18;95594.31;9971095;29;20148;-77
2021/01/29 11:25:44;;;;;;;18.40;12.35;;;;;;;1.93;81.60;95590.44;9958429;29;20502;-77
2021/01/29 11:31:11;;;;;;;15.68;12.15;;;;;;;1.85;81.65;95579.66;9970702;29;20137;-77
2021/01/29 11:36:36;;;;;;;17.48;13.15;;;;;;;1.84;82.12;95577.50;9958064;29;20063;-76
2021/01/29 11:42:18;;;;;;;15.93;10.98;;;;;;;1.73;81.97;95559.56;9957313;29;20074;-77
2021/01/29 11:48:07;;;;;;;15.20;11.85;;;;;;;1.66;81.97;95557.75;9959766;29;20145;-77
2021/01/29 11:53:38;;;;;;;16.17;11.57;;;;;;;1.52;83.48;95538.28;9974259;29;20062;-77
2021/01/29 11:59:14;;;;;;;12.98;9.50;;;;;;;1.53;84.76;95542.47;9970478;29;20150;-77
2021/01/29 12:04:52;;;;;;;13.90;10.20;;;;;;;1.51;84.54;95523.09;9983659;29;20062;-77
2021/01/29 12:10:40;;;;;;;10.65;7.97;;;;;;;1.44;84.77;95535.72;9969422;29;20070;-77
2021/01/29 12:16:01;;;;;;;12.18;9.13;;;;;;;1.56;84.87;95515.84;9954480;29;20510;-76
2021/01/29 12:21:25;;;;;;;10.95;8.35;;;;;;;1.66;84.26;95519.25;9952080;29;20494;-77
2021/01/29 12:27:00;;;;;;;9.27;7.38;;;;;;;1.74;84.91;95525.28;9978749;29;20058;-77
2021/01/29 12:32:26;;;;;;;11.85;7.75;;;;;;;1.89;83.89;95511.13;9964298;29;20066;-77
2021/01/29 12:38:04;;;;;;;9.65;7.35;;;;;;;2.12;83.92;95509.78;9966447;29;20137;-73
2021/01/29 12:43:52;;;;;;;8.77;7.03;;;;;;;2.38;84.17;95505.22;9963616;29;20058;-73
2021/01/29 12:49:35;;;;;;;11.07;7.78;;;;;;;2.67;83.02;95500.16;9956142;29;20065;-73
2021/01/29 12:54:59;;;;;;;9.77;7.47;;;;;;;2.90;82.34;95485.69;9969381;29;20089;-74
2021/01/29 13:00:27;;;;;;;10.32;7.47;;;;;;;3.13;82.52;95493.97;9959731;29;20058;-74
2021/01/29 13:06:11;;;;;;;10.20;7.60;;;;;;;3.16;81.59;95489.28;9972854;29;20573;-73
2021/01/29 13:12:09;;;;;;;8.70;6.77;;;;;;;3.21;81.84;95490.97;9986556;29;20066;-73
2021/01/29 13:17:38;;;;;;;11.85;8.25;;;;;;;3.31;82.13;95488.81;9973364;29;20058;-73
2021/01/29 13:23:32;;;;;;;11.77;8.35;;;;;;;3.33;81.42;95493.72;9947583;29;20066;-71
2021/01/29 13:29:14;;;;;;;8.52;5.85;;;;;;;3.16;81.24;95498.28;9984696;29;20073;-71
2021/01/29 13:34:42;;;;;;;8.52;5.15;;;;;;;3.13;81.75;95501.53;9985273;29;20089;-71
2021/01/29 13:40:21;;;;;;;6.82;4.72;;;;;;;3.08;81.80;95516.38;9949000;29;20506;-72
2021/01/29 13:45:41;;;;;;;8.02;4.95;;;;;;;2.96;81.60;95510.84;9976507;29;20067;-72
2021/01/29 13:51:39;;;;;;;7.53;4.55;;;;;;;2.79;81.74;95519.44;9962356;29;20133;-71
2021/01/29 13:57:31;;;;;;;7.38;4.78;;;;;;;2.79;82.26;95508.44;9988702;29;20061;-71
2021/01/29 14:03:28;;;;;;;11.73;4.65;;;;;;;2.77;81.83;95514.53;9958357;29;20514;-71
2021/01/29 14:08:48;;;;;;;8.23;4.93;;;;;;;2.81;82.23;95503.78;9973711;29;20066;-71
2021/01/29 14:14:42;;;;;;;7.43;4.70;;;;;;;2.93;81.54;95506.53;9975085;29;20090;-71
2021/01/29 14:20:12;;;;;;;5.43;3.60;;;;;;;2.97;81.74;95506.78;9961193;29;20066;-72
2021/01/29 14:26:09;;;;;;;5.68;3.60;;;;;;;2.98;81.62;95515.75;9974900;29;20067;-71
2021/01/29 14:31:41;;;;;;;4.13;3.20;;;;;;;2.88;81.00;95522.09;9961369;29;20458;-72
2021/01/29 14:37:19;;;;;;;5.90;3.60;;;;;;;2.81;81.75;95525.09;9965055;29;20141;-70
2021/01/29 14:43:25;;;;;;;4.40;3.33;;;;;;;2.74;81.68;95523.28;9957615;29;20074;-73
2021/01/29 14:49:00;;;;;;;5.28;3.28;;;;;;;2.72;81.81;95528.69;9936056;29;20621;-72
2021/01/29 14:54:28;;;;;;;4.57;3.50;;;;;;;2.72;82.25;95531.44;9948123;29;20149;-72
2021/01/29 14:59:56;;;;;;;4.50;3.15;;;;;;;2.70;81.83;95543.06;9922319;29;20502;-71
2021/01/29 15:05:43;;;;;;;5.00;3.60;;;;;;;2.62;81.17;95534.28;9921765;29;20422;-71
2021/01/29 15:11:13;;;;;;;4.80;3.47;;;;;;;2.62;81.79;95534.28;9935061;29;20074;-73
2021/01/29 15:16:39;;;;;;;4.65;3.45;;;;;;;2.67;81.60;95540.75;9933759;29;20063;-76
2021/01/29 15:22:26;;;;;;;5.32;4.00;;;;;;;2.68;81.39;95553.19;9946176;29;20063;-75
2021/01/29 15:27:46;;;;;;;5.25;4.38;;;;;;;2.68;81.54;95545.66;9947021;29;20455;-75
2021/01/29 15:33:39;;;;;;;6.80;4.70;;;;;;;2.68;81.65;95550.44;9992247;29;20070;-74
2021/01/29 15:39:01;;;;;;;5.50;4.32;;;;;;;2.68;81.50;95553.19;10021869;29;20066;-73
2021/01/29 15:44:24;;;;;;;5.38;4.30;;;;;;;2.68;80.70;95550.44;10021206;29;20065;-73
2021/01/29 15:49:45;;;;;;;7.90;4.63;;;;;;;2.68;81.18;95548.41;10007921;29;20517;-72
2021/01/29 15:55:24;;;;;;;7.70;5.60;;;;;;;2.70;80.93;95556.81;9994553;29;20066;-72
2021/01/29 16:00:49;;;;;;;9.25;6.88;;;;;;;2.71;80.98;95550.00;9995419;29;20093;-72
2021/01/29 16:06:09;;;;;;;10.85;6.72;;;;;;;2.79;81.16;95558.03;10008069;29;20149;-72
2021/01/29 16:11:29;;;;;;;9.88;6.90;;;;;;;2.86;81.51;95563.31;9990637;29;20089;-72
2021/01/29 16:16:49;;;;;;;10.02;5.53;;;;;;;2.94;81.20;95560.34;9944796;29;20070;-72
2021/01/29 16:22:11;;;;;;;6.35;4.28;;;;;;;2.98;81.47;95566.09;9957076;29;20471;-71
2021/01/29 16:27:34;;;;;;;7.63;4.03;;;;;;;3.03;81.25;95565.03;9958282;29;20070;-73
2021/01/29 16:33:11;;;;;;;6.07;4.00;;;;;;;3.05;81.35;95572.69;9957466;29;20486;-73
2021/01/29 16:38:35;;;;;;;7.85;4.82;;;;;;;3.11;81.74;95587.59;9995310;29;20069;-72
2021/01/29 16:44:18;;;;;;;7.90;4.55;;;;;;;3.17;81.44;95585.19;9995465;29;20062;-74
2021/01/29 16:49:38;;;;;;;7.22;4.75;;;;;;;3.27;81.11;95598.13;9958626;29;20072;-73
2021/01/29 16:55:00;;;;;;;8.73;5.18;;;;;;;3.35;80.72;95598.63;9994774;29;20425;-74
2021/01/29 17:00:20;;;;;;;8.82;5.13;;;;;;;3.40;80.44;95601.06;9981028;29;20081;-75
2021/01/29 17:05:39;;;;;;;10.63;6.22;;;;;;;3.41;81.19;95585.22;9968597;29;20410;-72
2021/01/29 17:11:30;;;;;;;11.50;6.28;;;;;;;3.43;80.81;95594.31;9968156;29;20074;-72
2021/01/29 17:16:55;;;;;;;11.25;5.90;;;;;;;3.51;80.94;95605.13;9973309;29;20510;-73
2021/01/29 17:22:25;;;;;;;9.60;5.30;;;;;;;3.58;81.43;95604.19;9981231;29;20126;-71
2021/01/29 17:27:45;;;;;;;9.88;5.35;;;;;;;3.64;81.02;95606.56;9957068;29;20066;-71
2021/01/29 17:33:12;;;;;;;8.23;4.18;;;;;;;3.72;81.47;95612.56;9968035;29;20065;-71
2021/01/29 17:38:36;;;;;;;10.05;3.88;;;;;;;3.84;81.43;95607.75;9968728;29;20085;-71
2021/01/29 17:44:25;;;;;;;9.05;2.72;;;;;;;4.00;81.86;95619.03;9988119;29;20066;-73
2021/01/29 17:49:47;;;;;;;6.43;1.73;;;;;;;4.12;82.20;95627.28;9871491;30;20063;-72
2021/01/29 17:55:33;;;;;;;5.75;1.98;;;;;;;4.27;81.91;95641.31;9858146;30;20416;-71
2021/01/29 18:01:57;;;;;;;6.43;1.55;;;;;;;4.38;81.72;95644.66;9871880;30;20060;-78
2021/01/29 18:07:18;;;;;;;7.63;1.60;;;;;;;4.46;81.54;95650.66;9858806;30;20123;-75
2021/01/29 18:12:39;;;;;;;7.22;1.23;;;;;;;4.48;81.75;95656.28;9858507;30;20147;-73
2021/01/29 18:18:05;;;;;;;5.00;1.17;;;;;;;4.42;81.53;95662.19;9880109;29;20082;-72
2021/01/29 18:23:29;;;;;;;6.15;1.17;;;;;;;4.46;81.50;95670.00;9923601;29;20067;-72
2021/01/29 18:28:49;;;;;;;5.43;1.48;;;;;;;4.49;81.89;95671.53;9935507;29;20506;-74
2021/01/29 18:34:18;;;;;;;3.28;1.20;;;;;;;4.53;81.78;95671.75;9935570;29;20514;-74
2021/01/29 18:39:37;;;;;;;4.55;1.33;;;;;;;4.52;81.44;95676.56;9935506;29;20425;-71
2021/01/29 18:44:57;;;;;;;3.08;1.10;;;;;;;4.55;81.20;95677.44;9934959;29;20063;-71
2021/01/29 18:50:17;;;;;;;4.97;2.17;;;;;;;4.53;81.48;95683.53;9981709;29;20502;-73
2021/01/29 18:55:36;;;;;;;3.50;1.10;;;;;;;4.50;81.46;95675.75;9958096;29;20064;-75
2021/01/29 19:00:57;;;;;;;5.45;1.17;;;;;;;4.50;81.51;95681.28;9946665;29;20102;-75
2021/01/29 19:06:17;;;;;;;7.93;1.60;;;;;;;4.50;82.18;95684.03;9959062;29;20062;-74
2021/01/29 19:11:38;;;;;;;4.32;1.55;;;;;;;4.46;82.29;95683.81;9959104;29;20130;-74
2021/01/29 19:16:58;;;;;;;4.35;1.50;;;;;;;4.35;82.86;95667.97;9959093;29;20058;-74
2021/01/29 19:22:17;;;;;;;4.22;1.20;;;;;;;4.38;83.16;95677.81;9971160;29;20490;-74
2021/01/29 19:27:38;;;;;;;7.22;1.90;;;;;;;4.44;83.08;95676.13;9971146;29;20066;-75
2021/01/29 19:32:58;;;;;;;4.80;1.63;;;;;;;4.46;82.49;95676.25;9970847;29;20502;-75
2021/01/29 19:38:18;;;;;;;3.50;1.48;;;;;;;4.41;82.54;95676.59;9970650;29;20145;-75
2021/01/29 19:43:38;;;;;;;5.35;1.17;;;;;;;4.29;82.94;95677.34;9970542;29;20070;-75
2021/01/29 19:48:58;;;;;;;3.13;1.10;;;;;;;4.30;83.23;95672.53;9984032;29;20065;-74
2021/01/29 19:54:21;;;;;;;3.67;1.45;;;;;;;4.31;82.67;95674.69;9984058;29;20118;-75
2021/01/29 19:59:42;;;;;;;4.15;1.50;;;;;;;4.36;82.95;95697.03;9954555;29;20058;-76
2021/01/29 20:05:03;;;;;;;6.57;1.10;;;;;;;4.38;82.96;95703.41;9957334;29;20413;-74
2021/01/29 20:10:30;;;;;;;4.00;1.50;;;;;;;4.40;82.64;95689.69;9983236;29;20066;-76
2021/01/29 20:15:50;;;;;;;3.92;1.25;;;;;;;4.38;83.00;95695.09;9970210;29;20062;-75
2021/01/29 20:21:12;;;;;;;3.08;0.88;;;;;;;4.31;82.82;95693.31;9969710;29;20069;-76
2021/01/29 20:26:32;;;;;;;3.97;1.25;;;;;;;4.26;83.27;95691.66;9983408;29;20066;-75
2021/01/29 20:31:52;;;;;;;3.35;1.00;;;;;;;4.27;83.34;95693.09;9983479;29;20071;-75
2021/01/29 20:37:12;;;;;;;2.90;1.23;;;;;;;4.36;82.94;95688.75;9969463;29;20073;-75
2021/01/29 20:42:32;;;;;;;3.65;1.10;;;;;;;4.30;82.96;95700.88;9983426;29;20062;-74
2021/01/29 20:47:52;;;;;;;3.40;1.00;;;;;;;4.26;82.75;95697.16;9966226;29;20075;-75
2021/01/29 20:53:12;;;;;;;2.88;0.90;;;;;;;4.28;82.41;95694.53;9953260;29;20800;-75
2021/01/29 20:58:32;;;;;;;4.05;1.20;;;;;;;4.26;82.36;95697.16;9931348;29;20169;-75
2021/01/29 21:03:52;;;;;;;4.72;1.45;;;;;;;4.17;82.31;95693.22;9944843;29;20090;-75
2021/01/29 21:09:12;;;;;;;2.63;1.08;;;;;;;4.14;82.36;95699.19;9944608;29;20153;-74
2021/01/29 21:14:32;;;;;;;3.75;1.25;;;;;;;4.13;82.62;95715.03;9931898;29;20086;-75
2021/01/29 21:19:54;;;;;;;2.28;0.82;;;;;;;4.19;82.54;95711.94;9951664;29;20150;-74
2021/01/29 21:25:14;;;;;;;2.80;0.85;;;;;;;4.21;82.53;95714.81;9922829;29;20142;-74
2021/01/29 21:30:34;;;;;;;4.38;0.90;;;;;;;4.16;82.75;95718.66;9951405;29;20515;-76
2021/01/29 21:35:53;;;;;;;2.75;0.82;;;;;;;4.09;83.23;95725.16;9939285;29;20517;-76
2021/01/29 21:41:13;;;;;;;2.40;0.80;;;;;;;4.12;83.07;95732.94;9951339;29;20451;-76
2021/01/29 21:46:33;;;;;;;4.00;0.95;;;;;;;4.18;82.68;95725.03;9958666;29;20062;-75
2021/01/29 21:51:53;;;;;;;3.17;0.90;;;;;;;4.24;81.90;95717.09;9959315;29;20542;-76
2021/01/29 21:57:13;;;;;;;3.92;1.10;;;;;;;4.29;82.01;95729.81;9952784;29;20062;-76
2021/01/29 22:02:33;;;;;;;2.50;1.00;;;;;;;4.15;81.91;95717.94;9951429;29;20431;-75
2021/01/29 22:07:55;;;;;;;3.25;1.13;;;;;;;3.97;82.84;95720.34;9951360;29;20063;-76
2021/01/29 22:13:14;;;;;;;3.42;0.68;;;;;;;3.79;84.08;95726.81;9951325;29;20434;-76
2021/01/29 22:18:34;;;;;;;1.58;0.57;;;;;;;3.68;83.90;95717.19;9950731;29;20065;-75
2021/01/29 22:23:54;;;;;;;3.17;0.60;;;;;;;3.58;84.89;95724.84;9950634;29;20093;-76
2021/01/29 22:29:14;;;;;;;2.72;0.68;;;;;;;3.63;84.31;95716.22;9949996;29;20204;-75
2021/01/29 22:34:34;;;;;;;2.38;0.75;;;;;;;3.72;84.66;95729.19;9950412;29;20058;-75
2021/01/29 22:39:55;;;;;;;1.90;0.80;;;;;;;3.81;83.89;95708.31;9949908;29;20141;-76
2021/01/29 22:45:15;;;;;;;2.80;0.70;;;;;;;3.85;83.91;95710.59;9949465;29;20141;-75
2021/01/29 22:50:35;;;;;;;2.60;0.70;;;;;;;3.82;83.72;95712.53;9948961;29;20066;-75
2021/01/29 22:55:54;;;;;;;4.18;0.98;;;;;;;3.77;83.87;95719.13;9950584;29;20568;-75
2021/01/29 23:01:14;;;;;;;2.90;0.80;;;;;;;3.80;84.03;95722.72;9949532;29;20067;-75
2021/01/29 23:06:34;;;;;;;2.67;0.70;;;;;;;3.93;84.07;95731.13;9935496;29;20144;-75
2021/01/29 23:11:55;;;;;;;1.50;0.50;;;;;;;4.09;83.47;95725.16;9948909;29;20159;-76
2021/01/29 23:17:15;;;;;;;3.72;0.50;;;;;;;4.19;83.27;95745.78;9936353;29;20092;-75
2021/01/29 23:22:35;;;;;;;3.45;0.50;;;;;;;4.25;83.99;95754.44;9934765;29;20465;-75
2021/01/29 23:27:56;;;;;;;3.67;0.50;;;;;;;4.34;84.25;95746.63;9934552;29;20068;-76
2021/01/29 23:33:16;;;;;;;3.83;0.60;;;;;;;4.16;83.94;95735.25;9948837;29;20124;-75
2021/01/29 23:38:36;;;;;;;2.20;0.73;;;;;;;4.12;84.83;95737.75;9933632;29;20063;-75
2021/01/29 23:43:56;;;;;;;2.00;0.40;;;;;;;4.17;84.53;95722.88;9948321;29;20062;-75
2021/01/29 23:49:16;;;;;;;2.97;0.50;;;;;;;4.24;84.19;95725.38;9934649;29;20119;-76
2021/01/29 23:54:36;;;;;;;2.50;0.68;;;;;;;4.34;83.82;95724.53;9948613;29;20062;-76
2021/01/29 23:59:56;;;;;;;2.55;0.50;;;;;;;4.40;83.73;95713.84;9920993;29;20123;-76
